createdAt,value
2022-09-15T00:01:10.050Z,72.70
2022-09-15T00:03:37.530Z,72.80
2022-09-15T00:06:05.502Z,72.70
2022-09-15T00:08:32.563Z,72.80
2022-09-15T00:11:17.257Z,72.80
2022-09-15T00:13:45.311Z,73.20
2022-09-15T00:16:15.236Z,72.80
2022-09-15T00:18:44.730Z,72.80
2022-09-15T00:21:18.913Z,72.90
2022-09-15T00:23:46.991Z,72.90
2022-09-15T00:26:19.238Z,73.00
2022-09-15T00:28:46.425Z,73.00
2022-09-15T00:31:17.126Z,73.00
2022-09-15T00:33:48.726Z,73.00
2022-09-15T00:36:17.017Z,73.00
2022-09-15T00:38:44.635Z,72.90
2022-09-15T00:41:15.123Z,72.90
2022-09-15T00:43:47.787Z,73.00
2022-09-15T00:46:19.992Z,73.00
2022-09-15T00:49:26.339Z,73.00
2022-09-15T00:52:16.078Z,73.20
2022-09-15T00:54:52.819Z,73.10
2022-09-15T00:57:28.361Z,73.00
2022-09-15T01:00:00.344Z,73.00
2022-09-15T01:02:34.348Z,72.90
2022-09-15T01:05:10.487Z,72.90
2022-09-15T01:07:59.082Z,72.90
2022-09-15T01:10:28.704Z,72.50
2022-09-15T01:13:00.333Z,72.70
2022-09-15T01:16:01.843Z,72.60
2022-09-15T01:19:14.861Z,72.50
2022-09-15T01:21:56.805Z,72.60
2022-09-15T01:25:02.736Z,72.50
2022-09-15T01:27:50.577Z,72.40
2022-09-15T01:30:21.768Z,72.50
2022-09-15T01:33:28.929Z,72.40
2022-09-15T01:36:07.315Z,72.00
2022-09-15T01:39:06.919Z,72.30
2022-09-15T01:42:10.262Z,72.10
2022-09-15T01:44:51.812Z,72.20
2022-09-15T01:47:21.350Z,72.20
2022-09-15T01:49:59.397Z,72.30
2022-09-15T01:52:28.051Z,72.00
2022-09-15T01:55:00.391Z,72.30
2022-09-15T01:57:28.056Z,72.00
2022-09-15T01:59:56.531Z,72.00
2022-09-15T02:02:30.678Z,71.80
2022-09-15T02:05:25.271Z,71.50
2022-09-15T02:07:58.986Z,70.40
2022-09-15T02:11:03.352Z,70.80
2022-09-15T02:14:14.257Z,69.30
2022-09-15T02:16:48.502Z,69.40
2022-09-15T02:19:41.127Z,70.30
2022-09-15T02:22:27.919Z,68.70
2022-09-15T02:25:03.013Z,68.90
2022-09-15T02:27:37.772Z,69.50
2022-09-15T02:30:11.858Z,69.90
2022-09-15T02:32:54.434Z,69.10
2022-09-15T02:35:23.452Z,69.10
2022-09-15T02:37:51.881Z,69.30
2022-09-15T02:40:19.226Z,69.20
2022-09-15T02:42:55.870Z,69.00
2022-09-15T02:45:27.121Z,67.60
2022-09-15T02:47:54.085Z,68.70
2022-09-15T02:50:20.985Z,68.60
2022-09-15T02:52:47.761Z,68.60
2022-09-15T02:55:15.798Z,68.60
2022-09-15T02:57:42.598Z,68.40
2022-09-15T03:00:13.699Z,68.40
2022-09-15T03:02:52.386Z,68.50
2022-09-15T03:05:23.754Z,67.50
2022-09-15T03:07:51.566Z,68.10
2022-09-15T03:10:18.645Z,68.20
2022-09-15T03:12:51.761Z,68.10
2022-09-15T03:15:25.207Z,67.80
2022-09-15T03:17:53.561Z,67.80
2022-09-15T03:20:27.691Z,67.90
2022-09-15T03:22:54.753Z,67.80
2022-09-15T03:25:21.934Z,67.90
2022-09-15T03:27:48.737Z,67.80
2022-09-15T03:30:15.626Z,68.20
2022-09-15T03:32:42.482Z,67.80
2022-09-15T03:35:09.988Z,67.70
2022-09-15T03:37:37.197Z,67.70
2022-09-15T03:40:05.250Z,67.70
2022-09-15T03:42:32.316Z,67.70
2022-09-15T03:44:59.188Z,67.60
2022-09-15T03:47:26.109Z,67.60
2022-09-15T03:49:52.952Z,67.50
2022-09-15T03:52:19.765Z,67.70
2022-09-15T03:54:48.972Z,67.60
2022-09-15T03:57:18.366Z,67.20
2022-09-15T03:59:45.237Z,67.30
2022-09-15T04:02:12.141Z,67.10
2022-09-15T04:04:38.954Z,67.00
2022-09-15T04:07:05.805Z,67.00
2022-09-15T04:09:32.666Z,67.00
2022-09-15T04:11:59.466Z,66.90
2022-09-15T04:14:26.286Z,66.80
2022-09-15T04:16:53.147Z,66.80
2022-09-15T04:19:20.204Z,66.60
2022-09-15T04:21:47.482Z,66.50
2022-09-15T04:24:14.503Z,66.30
2022-09-15T04:26:41.345Z,66.10
2022-09-15T04:29:14.936Z,66.20
2022-09-15T04:31:42.464Z,65.50
2022-09-15T04:34:09.398Z,66.10
2022-09-15T04:36:36.441Z,66.00
2022-09-15T04:39:06.042Z,65.90
2022-09-15T04:41:33.659Z,65.70
2022-09-15T04:44:01.104Z,65.50
2022-09-15T04:46:28.063Z,65.30
2022-09-15T04:48:56.574Z,65.60
2022-09-15T04:51:24.396Z,65.00
2022-09-15T04:53:51.975Z,64.90
2022-09-15T04:56:25.659Z,64.80
2022-09-15T04:59:02.481Z,64.50
2022-09-15T05:01:35.380Z,64.50
2022-09-15T05:04:04.421Z,64.40
2022-09-15T05:06:32.130Z,64.50
2022-09-15T05:08:58.998Z,64.50
2022-09-15T05:11:27.064Z,64.00
2022-09-15T05:13:54.425Z,64.00
2022-09-15T05:16:25.009Z,64.10
2022-09-15T05:18:54.532Z,64.00
2022-09-15T05:21:23.379Z,63.90
2022-09-15T05:23:54.221Z,63.70
2022-09-15T05:26:26.875Z,63.50
2022-09-15T05:28:57.610Z,60.80
2022-09-15T05:31:27.250Z,62.60
2022-09-15T05:33:54.805Z,61.10
2022-09-15T05:36:25.266Z,63.60
2022-09-15T05:38:56.805Z,63.10
2022-09-15T05:41:24.578Z,62.70
2022-09-15T05:43:52.247Z,63.30
2022-09-15T05:46:20.527Z,63.60
2022-09-15T05:48:47.644Z,63.60
2022-09-15T05:51:15.218Z,63.60
2022-09-15T05:53:42.295Z,63.60
2022-09-15T05:56:13.453Z,63.50
2022-09-15T05:58:43.007Z,63.20
2022-09-15T06:01:19.008Z,63.40
2022-09-15T06:03:47.531Z,63.00
2022-09-15T06:06:14.782Z,63.50
2022-09-15T06:08:56.878Z,63.60
2022-09-15T06:11:28.880Z,63.20
2022-09-15T06:13:56.245Z,63.70
2022-09-15T06:16:24.840Z,64.00
2022-09-15T06:18:53.800Z,64.10
2022-09-15T06:21:25.493Z,64.20
2022-09-15T06:23:57.575Z,64.10
2022-09-15T06:26:25.424Z,64.90
2022-09-15T06:28:59.628Z,64.40
2022-09-15T06:31:29.487Z,64.20
2022-09-15T06:33:57.720Z,64.60
2022-09-15T06:36:28.685Z,64.80
2022-09-15T06:38:55.919Z,64.80
2022-09-15T06:41:23.609Z,64.80
2022-09-15T06:43:50.466Z,64.90
2022-09-15T06:46:24.975Z,64.80
2022-09-15T06:48:53.487Z,64.50
2022-09-15T06:51:23.931Z,64.90
2022-09-15T06:53:50.996Z,64.80
2022-09-15T06:56:21.539Z,64.60
2022-09-15T06:58:49.359Z,64.40
2022-09-15T07:01:34.361Z,64.30
2022-09-15T07:04:05.638Z,63.80
2022-09-15T07:06:34.208Z,64.50
2022-09-15T07:09:02.525Z,65.10
2022-09-15T07:11:30.856Z,64.70
2022-09-15T07:13:58.071Z,65.10
2022-09-15T07:16:25.852Z,65.60
2022-09-15T07:18:56.968Z,66.30
2022-09-15T07:21:24.656Z,67.50
2022-09-15T07:23:51.990Z,68.40
2022-09-15T07:26:23.721Z,69.20
2022-09-15T07:29:10.745Z,70.20
2022-09-15T07:31:39.023Z,71.20
2022-09-15T07:34:06.621Z,71.90
2022-09-15T07:36:33.871Z,72.80
2022-09-15T07:39:00.738Z,73.60
2022-09-15T07:41:31.861Z,74.20
2022-09-15T07:44:00.984Z,74.70
2022-09-15T07:46:32.168Z,75.10
2022-09-15T07:49:00.654Z,75.40
2022-09-15T07:51:27.430Z,76.20
2022-09-15T07:53:54.802Z,76.90
2022-09-15T07:56:23.936Z,77.30
2022-09-15T07:58:51.985Z,78.20
2022-09-15T08:01:20.445Z,79.20
2022-09-15T08:03:50.615Z,79.30
2022-09-15T08:06:21.537Z,79.50
2022-09-15T08:08:51.731Z,79.60
2022-09-15T08:11:21.180Z,79.10
2022-09-15T08:13:50.521Z,78.00
2022-09-15T08:16:25.058Z,76.20
2022-09-15T08:18:54.092Z,74.50
2022-09-15T08:21:22.390Z,74.10
2022-09-15T08:23:58.934Z,73.50
2022-09-15T08:26:28.163Z,71.70
2022-09-15T08:28:55.051Z,73.70
2022-09-15T08:31:24.040Z,74.40
2022-09-15T08:33:54.008Z,74.20
2022-09-15T08:36:21.460Z,73.90
2022-09-15T08:38:48.791Z,74.30
2022-09-15T08:41:33.518Z,73.80
2022-09-15T08:44:21.994Z,71.40
2022-09-15T08:47:00.797Z,71.10
2022-09-15T08:49:59.518Z,70.60
2022-09-15T08:52:52.182Z,67.90
2022-09-15T08:55:49.240Z,66.20
2022-09-15T08:58:27.025Z,65.70
2022-09-15T09:01:10.650Z,68.70
2022-09-15T09:03:37.526Z,64.90
2022-09-15T09:06:27.663Z,72.50
2022-09-15T09:09:07.958Z,73.80
2022-09-15T09:12:08.985Z,70.60
2022-09-15T09:15:13.891Z,63.70
2022-09-15T09:18:37.880Z,64.60
2022-09-15T09:21:38.443Z,56.10
2022-09-15T09:24:14.944Z,58.90
2022-09-15T09:26:42.004Z,65.20
2022-09-15T09:29:19.995Z,64.20
2022-09-15T09:31:51.188Z,62.30
2022-09-15T09:35:15.857Z,60.20
2022-09-15T09:37:42.970Z,52.30
2022-09-15T09:40:15.522Z,58.90
2022-09-15T09:42:44.672Z,56.90
2022-09-15T09:45:18.659Z,59.40
2022-09-15T09:47:48.948Z,55.20
2022-09-15T09:50:43.119Z,58.90
2022-09-15T09:53:33.688Z,52.90
2022-09-15T09:56:15.075Z,54.70
2022-09-15T09:58:41.871Z,49.60
2022-09-15T10:01:16.984Z,57.90
2022-09-15T10:03:45.222Z,53.10
2022-09-15T10:06:13.984Z,57.30
2022-09-15T10:09:03.533Z,54.70
2022-09-15T10:11:49.934Z,49.30
2022-09-15T10:14:38.442Z,48.50
2022-09-15T10:17:15.508Z,52.60
2022-09-15T10:19:55.939Z,54.30
2022-09-15T10:22:31.209Z,50.00
2022-09-15T10:25:00.549Z,53.80
2022-09-15T10:27:34.556Z,55.80
2022-09-15T10:30:18.906Z,56.00
2022-09-15T10:32:45.856Z,46.70
2022-09-15T10:35:16.715Z,53.60
2022-09-15T10:38:13.024Z,51.30
2022-09-15T10:40:54.612Z,49.70
2022-09-15T10:43:46.210Z,47.90
2022-09-15T10:46:44.013Z,44.20
2022-09-15T10:49:50.579Z,45.80
2022-09-15T10:52:28.982Z,42.90
2022-09-15T10:55:37.059Z,47.60
2022-09-15T10:58:31.782Z,50.60
2022-09-15T11:01:30.235Z,49.40
2022-09-15T11:04:38.549Z,43.10
2022-09-15T11:07:46.197Z,45.60
2022-09-15T11:10:48.534Z,49.70
2022-09-15T11:13:43.350Z,47.30
2022-09-15T11:17:02.374Z,47.10
2022-09-15T11:20:30.052Z,46.40
2022-09-15T11:23:34.255Z,46.50
2022-09-15T11:26:19.979Z,47.80
2022-09-15T11:29:07.325Z,49.20
2022-09-15T11:31:44.108Z,48.60
2022-09-15T11:34:34.648Z,50.60
2022-09-15T11:37:13.996Z,48.20
2022-09-15T11:40:07.346Z,49.10
2022-09-15T11:42:49.307Z,47.90
2022-09-15T11:45:25.564Z,47.80
2022-09-15T11:48:04.286Z,51.10
2022-09-15T11:50:38.225Z,51.30
2022-09-15T11:53:33.189Z,50.70
2022-09-15T11:56:11.816Z,48.60
2022-09-15T11:59:03.748Z,50.30
2022-09-15T12:02:10.346Z,49.70
2022-09-15T12:04:49.150Z,50.90
2022-09-15T12:07:25.142Z,48.70
2022-09-15T12:09:52.255Z,49.60
2022-09-15T12:12:22.557Z,51.20
2022-09-15T12:14:52.380Z,50.90
2022-09-15T12:17:48.972Z,51.80
2022-09-15T12:21:03.375Z,50.00
2022-09-15T12:23:42.073Z,50.40
2022-09-15T12:26:21.732Z,50.10
2022-09-15T12:29:04.359Z,50.50
2022-09-15T12:31:33.937Z,50.50
2022-09-15T12:34:24.821Z,52.50
2022-09-15T12:37:13.891Z,52.10
2022-09-15T12:39:43.387Z,50.90
2022-09-15T12:42:22.074Z,51.40
2022-09-15T12:45:02.270Z,50.40
2022-09-15T12:47:50.779Z,51.20
2022-09-15T12:50:25.530Z,50.60
2022-09-15T12:53:00.147Z,53.20
2022-09-15T12:55:37.353Z,52.60
2022-09-15T12:58:18.573Z,51.30
2022-09-15T13:01:13.968Z,51.50
2022-09-15T13:06:26.691Z,51.80
2022-09-15T13:09:02.334Z,52.30
2022-09-15T13:11:37.302Z,51.60
2022-09-15T13:14:04.485Z,52.90
2022-09-15T13:16:40.305Z,53.80
2022-09-15T13:19:41.291Z,51.90
2022-09-15T13:22:11.225Z,53.20
2022-09-15T13:24:59.263Z,53.30
2022-09-15T13:28:08.739Z,53.90
2022-09-15T13:31:13.234Z,53.00
2022-09-15T13:38:15.191Z,48.90
2022-09-15T13:40:57.641Z,49.50
2022-09-15T13:43:41.154Z,49.30
2022-09-15T13:46:51.126Z,49.40
2022-09-15T13:50:24.737Z,49.70
2022-09-15T13:53:20.531Z,49.70
2022-09-15T13:55:48.356Z,46.90
2022-09-15T14:01:08.504Z,52.50
2022-09-15T14:03:48.319Z,50.60
2022-09-15T14:06:33.532Z,46.90
2022-09-15T14:09:13.587Z,47.80
2022-09-15T14:11:42.218Z,46.70
2022-09-15T14:14:36.508Z,48.40
2022-09-15T14:17:04.185Z,46.80
2022-09-15T14:19:37.799Z,49.00
2022-09-15T14:22:32.120Z,48.10
2022-09-15T14:25:06.096Z,47.10
2022-09-15T14:27:36.481Z,49.80
2022-09-15T14:30:09.029Z,50.40
2022-09-15T14:32:43.889Z,50.80
2022-09-15T14:35:23.351Z,51.70
2022-09-15T14:37:56.685Z,52.70
2022-09-15T14:40:37.713Z,53.00
2022-09-15T14:43:30.479Z,54.30
2022-09-15T14:46:10.774Z,55.10
2022-09-15T14:48:38.181Z,56.30
2022-09-15T14:51:25.151Z,56.60
2022-09-15T14:53:58.238Z,57.80
2022-09-15T14:56:33.164Z,58.00
2022-09-15T14:59:24.104Z,58.60
2022-09-15T15:01:59.840Z,59.00
2022-09-15T15:04:40.646Z,57.90
2022-09-15T15:07:22.704Z,59.80
2022-09-15T15:10:00.146Z,59.10
2022-09-15T15:12:32.271Z,60.40
2022-09-15T15:15:00.463Z,59.70
2022-09-15T15:17:48.868Z,60.10
2022-09-15T15:20:32.870Z,62.80
2022-09-15T15:23:23.228Z,61.50
2022-09-15T15:25:50.608Z,62.70
2022-09-15T15:28:37.558Z,62.50
2022-09-15T15:31:25.058Z,65.30
2022-09-15T15:34:05.444Z,65.70
2022-09-15T15:36:35.652Z,66.70
2022-09-15T15:39:07.119Z,66.70
2022-09-15T15:41:40.907Z,67.60
2022-09-15T15:44:27.805Z,68.60
2022-09-15T15:47:17.927Z,70.90
2022-09-15T15:50:11.829Z,69.70
2022-09-15T15:52:31.475Z,70.50
2022-09-15T15:54:58.266Z,71.30
2022-09-15T15:57:33.093Z,72.10
2022-09-15T16:00:00.905Z,73.30
2022-09-15T16:02:28.242Z,74.00
2022-09-15T16:04:55.236Z,74.90
2022-09-15T16:07:24.364Z,75.50
2022-09-15T16:09:51.534Z,76.20
2022-09-15T16:12:18.352Z,76.70
2022-09-15T16:14:45.215Z,77.10
2022-09-15T16:17:12.040Z,77.50
2022-09-15T16:19:39.186Z,77.80
2022-09-15T16:22:06.041Z,78.10
2022-09-15T16:24:33.160Z,78.20
2022-09-15T16:26:59.921Z,78.60
2022-09-15T16:29:31.253Z,78.90
2022-09-15T16:31:58.808Z,79.30
2022-09-15T16:34:25.665Z,79.60
2022-09-15T16:36:52.429Z,79.60
2022-09-15T16:39:19.222Z,78.90
2022-09-15T16:41:46.009Z,78.40
2022-09-15T16:44:19.919Z,78.00
2022-09-15T16:46:46.730Z,77.10
2022-09-15T16:49:13.605Z,77.50
2022-09-15T16:51:40.423Z,77.50
2022-09-15T16:54:20.408Z,77.70
2022-09-15T16:56:47.349Z,77.40
2022-09-15T16:59:14.418Z,78.30
2022-09-15T17:01:41.365Z,78.50
2022-09-15T17:04:19.041Z,78.60
2022-09-15T17:06:45.964Z,77.80
2022-09-15T17:09:12.795Z,78.20
2022-09-15T17:11:39.775Z,77.90
2022-09-15T17:14:07.406Z,78.10
2022-09-15T17:16:34.245Z,78.30
2022-09-15T17:19:01.026Z,78.40
2022-09-15T17:21:27.917Z,78.50
2022-09-15T17:23:54.674Z,78.60
2022-09-15T17:26:30.511Z,78.90
2022-09-15T17:28:58.432Z,79.30
2022-09-15T17:31:25.826Z,79.40
2022-09-15T17:33:53.062Z,79.40
2022-09-15T17:36:20.410Z,79.20
2022-09-15T17:38:51.096Z,79.00
2022-09-15T17:41:22.820Z,79.20
2022-09-15T17:43:49.704Z,78.90
2022-09-15T17:46:16.842Z,79.60
2022-09-15T17:48:43.778Z,79.70
2022-09-15T17:51:19.675Z,79.90
2022-09-15T17:53:47.630Z,79.30
2022-09-15T17:56:14.648Z,79.50
2022-09-15T17:58:41.828Z,79.20
2022-09-15T18:01:13.396Z,79.20
2022-09-15T18:03:42.006Z,79.20
2022-09-15T18:06:10.414Z,79.40
2022-09-15T18:08:38.009Z,79.50
2022-09-15T18:11:06.725Z,79.60
2022-09-15T18:13:34.030Z,79.90
2022-09-15T18:16:13.713Z,79.60
2022-09-15T18:18:41.405Z,78.90
2022-09-15T18:21:20.982Z,79.70
2022-09-15T18:23:47.969Z,79.60
2022-09-15T18:26:14.805Z,80.00
2022-09-15T18:28:41.572Z,80.10
2022-09-15T18:31:12.904Z,80.40
2022-09-15T18:33:39.827Z,79.60
2022-09-15T18:36:08.261Z,79.60
2022-09-15T18:38:35.133Z,79.70
2022-09-15T18:41:02.205Z,79.90
2022-09-15T18:43:28.963Z,80.20
2022-09-15T18:46:00.671Z,80.30
2022-09-15T18:48:27.530Z,79.50
2022-09-15T18:50:55.008Z,80.10
2022-09-15T18:53:22.530Z,80.00
2022-09-15T18:55:49.462Z,80.20
2022-09-15T18:58:17.700Z,80.20
2022-09-15T19:00:46.253Z,80.40
2022-09-15T19:03:14.176Z,80.40
2022-09-15T19:05:41.741Z,80.60
2022-09-15T19:08:09.228Z,80.50
2022-09-15T19:10:38.263Z,80.60
2022-09-15T19:13:05.404Z,80.60
2022-09-15T19:15:34.515Z,80.80
2022-09-15T19:18:02.015Z,80.80
2022-09-15T19:20:29.255Z,80.60
2022-09-15T19:22:57.855Z,80.50
2022-09-15T19:25:24.678Z,80.40
2022-09-15T19:27:51.582Z,80.60
2022-09-15T19:30:18.473Z,80.70
2022-09-15T19:32:45.321Z,80.80
2022-09-15T19:35:12.315Z,81.00
2022-09-15T19:37:41.821Z,81.00
2022-09-15T19:40:13.353Z,80.80
2022-09-15T19:42:42.703Z,81.00
2022-09-15T19:45:11.639Z,81.20
2022-09-15T19:47:39.690Z,81.30
2022-09-15T19:50:08.653Z,81.30
2022-09-15T19:52:35.576Z,81.10
2022-09-15T19:55:03.423Z,81.10
2022-09-15T19:57:30.329Z,80.80
2022-09-15T19:59:57.261Z,80.80
2022-09-15T20:02:24.174Z,81.00
2022-09-15T20:04:51.012Z,81.10
2022-09-15T20:07:17.880Z,81.30
2022-09-15T20:09:44.769Z,81.50
2022-09-15T20:12:11.585Z,81.70
2022-09-15T20:14:38.691Z,81.70
2022-09-15T20:17:05.626Z,81.50
2022-09-15T20:19:32.649Z,81.20
2022-09-15T20:21:59.483Z,81.40
2022-09-15T20:24:26.499Z,81.60
2022-09-15T20:26:53.677Z,81.70
2022-09-15T20:29:21.483Z,81.90
2022-09-15T20:31:48.647Z,81.90
2022-09-15T20:34:16.549Z,81.80
2022-09-15T20:36:43.707Z,81.70
2022-09-15T20:39:14.351Z,81.60
2022-09-15T20:41:46.394Z,81.60
2022-09-15T20:44:14.219Z,81.90
2022-09-15T20:46:41.231Z,82.10
2022-09-15T20:49:09.315Z,81.90
2022-09-15T20:51:36.271Z,81.70
2022-09-15T20:54:05.062Z,81.60
2022-09-15T20:56:35.090Z,81.60
2022-09-15T20:59:04.390Z,81.40
2022-09-15T21:01:37.474Z,81.60
2022-09-15T21:04:06.519Z,80.90
2022-09-15T21:06:34.231Z,81.70
2022-09-15T21:09:01.291Z,81.70
2022-09-15T21:11:29.574Z,81.70
2022-09-15T21:13:57.461Z,81.70
2022-09-15T21:16:28.179Z,81.70
2022-09-15T21:18:58.094Z,81.40
2022-09-15T21:21:30.077Z,81.50
2022-09-15T21:24:04.023Z,81.40
2022-09-15T21:26:59.377Z,80.80
2022-09-15T21:29:27.740Z,81.30
2022-09-15T21:31:55.845Z,81.30
2022-09-15T21:34:23.929Z,81.20
2022-09-15T21:36:51.779Z,81.10
2022-09-15T21:39:18.658Z,80.90
2022-09-15T21:41:45.618Z,80.90
2022-09-15T21:44:12.433Z,80.90
2022-09-15T21:46:40.068Z,81.00
2022-09-15T21:49:06.938Z,81.00
2022-09-15T21:51:33.870Z,81.00
2022-09-15T21:54:01.069Z,80.90
2022-09-15T21:56:29.795Z,80.90
2022-09-15T21:58:56.805Z,80.80
2022-09-15T22:01:27.787Z,80.90
2022-09-15T22:04:01.989Z,80.90
2022-09-15T22:06:35.632Z,80.80
2022-09-15T22:09:15.922Z,80.50
2022-09-15T22:11:43.785Z,80.20
2022-09-15T22:14:11.853Z,80.60
2022-09-15T22:16:41.483Z,80.90
2022-09-15T22:19:11.496Z,80.90
2022-09-15T22:21:41.664Z,81.30
2022-09-15T22:24:12.801Z,81.70
2022-09-15T22:26:41.429Z,81.80
2022-09-15T22:29:08.220Z,78.90
2022-09-15T22:31:35.915Z,82.00
2022-09-15T22:34:03.730Z,82.20
2022-09-15T22:36:31.720Z,82.20
2022-09-15T22:39:06.330Z,82.10
2022-09-15T22:41:37.229Z,81.90
2022-09-15T22:44:06.392Z,81.60
2022-09-15T22:46:33.950Z,81.60
2022-09-15T22:49:01.348Z,81.80
2022-09-15T22:51:28.483Z,81.80
2022-09-15T22:53:56.963Z,81.90
2022-09-15T22:56:26.272Z,82.00
2022-09-15T22:58:54.439Z,81.80
2022-09-15T23:01:25.117Z,81.70
2022-09-15T23:03:55.662Z,81.60
2022-09-15T23:06:24.119Z,81.80
2022-09-15T23:08:54.059Z,81.90
2022-09-15T23:11:21.689Z,81.50
2022-09-15T23:13:49.263Z,81.80
2022-09-15T23:16:16.880Z,81.70
2022-09-15T23:18:44.179Z,81.90
2022-09-15T23:21:13.403Z,82.00
2022-09-15T23:23:46.557Z,81.90
2022-09-15T23:26:14.120Z,81.90
2022-09-15T23:28:41.622Z,81.90
2022-09-15T23:31:12.307Z,82.10
2022-09-15T23:33:40.075Z,82.20
2022-09-15T23:36:12.138Z,82.50
2022-09-15T23:38:41.818Z,82.10
2022-09-15T23:41:10.938Z,82.10
2022-09-15T23:43:37.798Z,82.00
2022-09-15T23:46:05.194Z,81.80
2022-09-15T23:48:32.546Z,81.70
2022-09-15T23:51:00.918Z,81.70
2022-09-15T23:53:28.039Z,81.70
2022-09-15T23:55:54.896Z,81.70
2022-09-15T23:58:21.744Z,81.60
